sensor_id;sensor_type;location;lat;lon;timestamp;P1;durP1;ratioP1;P2;durP2;ratioP2
11245;SDS011;59870;50.106;8.580;2023-07-09T00:02:02;6.13;;;5.57;;
11245;SDS011;59870;50.106;8.580;2023-07-09T00:04:30;5.10;;;4.80;;
11245;SDS011;59870;50.106;8.580;2023-07-09T00:07:00;6.43;;;5.83;;
11245;SDS011;59870;50.106;8.580;2023-07-09T00:09:30;11.30;;;6.73;;
11245;SDS011;59870;50.106;8.580;2023-07-09T00:11:59;6.83;;;5.90;;
11245;SDS011;59870;50.106;8.580;2023-07-09T00:14:27;7.37;;;6.60;;
11245;SDS011;59870;50.106;8.580;2023-07-09T00:16:54;7.83;;;6.33;;
11245;SDS011;59870;50.106;8.580;2023-07-09T00:19:23;6.70;;;6.10;;
11245;SDS011;59870;50.106;8.580;2023-07-09T00:21:51;7.33;;;5.70;;
11245;SDS011;59870;50.106;8.580;2023-07-09T00:24:22;6.87;;;6.20;;
11245;SDS011;59870;50.106;8.580;2023-07-09T00:26:49;8.53;;;7.63;;
11245;SDS011;59870;50.106;8.580;2023-07-09T00:29:18;9.87;;;8.60;;
11245;SDS011;59870;50.106;8.580;2023-07-09T00:31:45;9.63;;;8.53;;
11245;SDS011;59870;50.106;8.580;2023-07-09T00:34:13;14.07;;;7.87;;
11245;SDS011;59870;50.106;8.580;2023-07-09T00:36:45;9.23;;;8.33;;
11245;SDS011;59870;50.106;8.580;2023-07-09T00:39:14;13.13;;;8.23;;
11245;SDS011;59870;50.106;8.580;2023-07-09T00:41:50;10.60;;;8.63;;
11245;SDS011;59870;50.106;8.580;2023-07-09T00:49:31;10.37;;;9.23;;
11245;SDS011;59870;50.106;8.580;2023-07-09T00:52:12;15.63;;;8.97;;
11245;SDS011;59870;50.106;8.580;2023-07-09T00:54:50;9.37;;;8.33;;
11245;SDS011;59870;50.106;8.580;2023-07-09T00:57:21;9.13;;;7.50;;
11245;SDS011;59870;50.106;8.580;2023-07-09T00:59:53;8.57;;;7.43;;
11245;SDS011;59870;50.106;8.580;2023-07-09T01:02:26;10.00;;;8.10;;
11245;SDS011;59870;50.106;8.580;2023-07-09T01:04:55;11.70;;;8.87;;
11245;SDS011;59870;50.106;8.580;2023-07-09T01:07:29;9.37;;;8.30;;
11245;SDS011;59870;50.106;8.580;2023-07-09T01:09:57;10.83;;;8.83;;
11245;SDS011;59870;50.106;8.580;2023-07-09T01:12:25;11.33;;;7.77;;
11245;SDS011;59870;50.106;8.580;2023-07-09T01:14:53;9.40;;;8.50;;
11245;SDS011;59870;50.106;8.580;2023-07-09T01:17:26;8.90;;;8.07;;
11245;SDS011;59870;50.106;8.580;2023-07-09T01:19:55;11.53;;;7.60;;
11245;SDS011;59870;50.106;8.580;2023-07-09T01:22:24;9.53;;;7.47;;
11245;SDS011;59870;50.106;8.580;2023-07-09T01:24:58;9.57;;;7.57;;
11245;SDS011;59870;50.106;8.580;2023-07-09T01:27:33;8.53;;;7.37;;
11245;SDS011;59870;50.106;8.580;2023-07-09T01:30:08;7.93;;;6.93;;
11245;SDS011;59870;50.106;8.580;2023-07-09T01:32:38;8.07;;;6.73;;
11245;SDS011;59870;50.106;8.580;2023-07-09T01:35:06;12.47;;;7.13;;
11245;SDS011;59870;50.106;8.580;2023-07-09T01:37:35;8.43;;;7.20;;
11245;SDS011;59870;50.106;8.580;2023-07-09T01:40:04;7.93;;;6.90;;
11245;SDS011;59870;50.106;8.580;2023-07-09T01:42:56;6.80;;;6.27;;
11245;SDS011;59870;50.106;8.580;2023-07-09T01:45:26;7.60;;;6.90;;
11245;SDS011;59870;50.106;8.580;2023-07-09T01:47:55;7.07;;;6.47;;
11245;SDS011;59870;50.106;8.580;2023-07-09T01:50:24;6.80;;;6.20;;
11245;SDS011;59870;50.106;8.580;2023-07-09T01:52:55;7.07;;;6.40;;
11245;SDS011;59870;50.106;8.580;2023-07-09T01:55:24;7.57;;;6.87;;
11245;SDS011;59870;50.106;8.580;2023-07-09T01:57:51;6.73;;;6.13;;
11245;SDS011;59870;50.106;8.580;2023-07-09T02:00:20;7.80;;;6.50;;
11245;SDS011;59870;50.106;8.580;2023-07-09T02:02:48;8.53;;;6.00;;
11245;SDS011;59870;50.106;8.580;2023-07-09T02:05:18;6.53;;;6.03;;
11245;SDS011;59870;50.106;8.580;2023-07-09T02:07:47;7.73;;;5.90;;
11245;SDS011;59870;50.106;8.580;2023-07-09T02:10:16;6.83;;;5.80;;
11245;SDS011;59870;50.106;8.580;2023-07-09T02:12:44;6.07;;;5.47;;
11245;SDS011;59870;50.106;8.580;2023-07-09T02:15:12;6.83;;;6.20;;
11245;SDS011;59870;50.106;8.580;2023-07-09T02:17:41;7.20;;;5.87;;
11245;SDS011;59870;50.106;8.580;2023-07-09T02:20:10;6.27;;;5.77;;
11245;SDS011;59870;50.106;8.580;2023-07-09T02:22:42;6.37;;;5.40;;
11245;SDS011;59870;50.106;8.580;2023-07-09T02:25:11;5.90;;;5.40;;
11245;SDS011;59870;50.106;8.580;2023-07-09T02:27:38;6.20;;;5.63;;
11245;SDS011;59870;50.106;8.580;2023-07-09T02:30:06;6.77;;;5.80;;
11245;SDS011;59870;50.106;8.580;2023-07-09T02:32:34;6.20;;;5.70;;
11245;SDS011;59870;50.106;8.580;2023-07-09T02:35:01;6.40;;;5.90;;
11245;SDS011;59870;50.106;8.580;2023-07-09T02:37:29;6.90;;;6.23;;
11245;SDS011;59870;50.106;8.580;2023-07-09T02:39:56;6.60;;;5.83;;
11245;SDS011;59870;50.106;8.580;2023-07-09T02:42:24;6.43;;;5.87;;
11245;SDS011;59870;50.106;8.580;2023-07-09T02:44:51;6.90;;;6.30;;
11245;SDS011;59870;50.106;8.580;2023-07-09T02:47:20;6.13;;;5.73;;
11245;SDS011;59870;50.106;8.580;2023-07-09T02:49:48;8.63;;;6.90;;
11245;SDS011;59870;50.106;8.580;2023-07-09T02:52:17;8.30;;;7.40;;
11245;SDS011;59870;50.106;8.580;2023-07-09T02:54:45;8.30;;;6.80;;
11245;SDS011;59870;50.106;8.580;2023-07-09T02:57:12;7.93;;;7.13;;
11245;SDS011;59870;50.106;8.580;2023-07-09T02:59:39;8.33;;;7.53;;
11245;SDS011;59870;50.106;8.580;2023-07-09T03:02:07;7.70;;;6.83;;
11245;SDS011;59870;50.106;8.580;2023-07-09T03:04:35;7.70;;;6.90;;
11245;SDS011;59870;50.106;8.580;2023-07-09T03:07:02;7.73;;;6.53;;
11245;SDS011;59870;50.106;8.580;2023-07-09T03:09:30;7.47;;;6.77;;
11245;SDS011;59870;50.106;8.580;2023-07-09T03:11:58;7.40;;;6.70;;
11245;SDS011;59870;50.106;8.580;2023-07-09T03:14:25;8.30;;;6.43;;
11245;SDS011;59870;50.106;8.580;2023-07-09T03:16:52;7.67;;;6.97;;
11245;SDS011;59870;50.106;8.580;2023-07-09T03:19:20;7.70;;;6.93;;
11245;SDS011;59870;50.106;8.580;2023-07-09T03:21:49;7.87;;;7.17;;
11245;SDS011;59870;50.106;8.580;2023-07-09T03:24:16;7.70;;;6.87;;
11245;SDS011;59870;50.106;8.580;2023-07-09T03:26:46;7.70;;;7.00;;
11245;SDS011;59870;50.106;8.580;2023-07-09T03:29:14;7.20;;;6.50;;
11245;SDS011;59870;50.106;8.580;2023-07-09T03:31:42;8.33;;;6.90;;
11245;SDS011;59870;50.106;8.580;2023-07-09T03:34:10;9.33;;;7.43;;
11245;SDS011;59870;50.106;8.580;2023-07-09T03:36:37;7.93;;;7.20;;
11245;SDS011;59870;50.106;8.580;2023-07-09T03:39:05;7.93;;;7.23;;
11245;SDS011;59870;50.106;8.580;2023-07-09T03:41:33;8.53;;;6.67;;
11245;SDS011;59870;50.106;8.580;2023-07-09T03:44:02;7.07;;;6.43;;
11245;SDS011;59870;50.106;8.580;2023-07-09T03:46:29;7.10;;;6.50;;
11245;SDS011;59870;50.106;8.580;2023-07-09T03:48:57;8.23;;;7.03;;
11245;SDS011;59870;50.106;8.580;2023-07-09T03:51:26;7.67;;;6.90;;
11245;SDS011;59870;50.106;8.580;2023-07-09T03:53:54;7.20;;;6.50;;
11245;SDS011;59870;50.106;8.580;2023-07-09T03:56:21;8.00;;;7.23;;
11245;SDS011;59870;50.106;8.580;2023-07-09T03:58:49;9.73;;;6.60;;
11245;SDS011;59870;50.106;8.580;2023-07-09T04:01:16;7.80;;;6.77;;
11245;SDS011;59870;50.106;8.580;2023-07-09T04:03:44;7.37;;;6.60;;
11245;SDS011;59870;50.106;8.580;2023-07-09T04:06:11;7.00;;;6.30;;
11245;SDS011;59870;50.106;8.580;2023-07-09T04:08:39;7.20;;;6.47;;
11245;SDS011;59870;50.106;8.580;2023-07-09T04:11:06;6.70;;;6.10;;
11245;SDS011;59870;50.106;8.580;2023-07-09T04:13:34;8.73;;;6.43;;
11245;SDS011;59870;50.106;8.580;2023-07-09T04:16:01;7.03;;;6.43;;
11245;SDS011;59870;50.106;8.580;2023-07-09T04:18:29;8.13;;;6.27;;
11245;SDS011;59870;50.106;8.580;2023-07-09T04:20:57;8.77;;;7.03;;
11245;SDS011;59870;50.106;8.580;2023-07-09T04:23:24;5.63;;;5.13;;
11245;SDS011;59870;50.106;8.580;2023-07-09T04:25:52;8.10;;;6.40;;
11245;SDS011;59870;50.106;8.580;2023-07-09T04:28:19;6.63;;;6.03;;
11245;SDS011;59870;50.106;8.580;2023-07-09T04:30:47;6.90;;;6.20;;
11245;SDS011;59870;50.106;8.580;2023-07-09T04:33:19;6.50;;;5.77;;
11245;SDS011;59870;50.106;8.580;2023-07-09T04:35:48;7.03;;;6.37;;
11245;SDS011;59870;50.106;8.580;2023-07-09T04:38:16;8.23;;;6.27;;
11245;SDS011;59870;50.106;8.580;2023-07-09T04:40:44;6.10;;;5.57;;
11245;SDS011;59870;50.106;8.580;2023-07-09T04:43:13;5.80;;;5.30;;
11245;SDS011;59870;50.106;8.580;2023-07-09T04:45:41;6.37;;;5.87;;
11245;SDS011;59870;50.106;8.580;2023-07-09T04:48:08;5.93;;;5.43;;
11245;SDS011;59870;50.106;8.580;2023-07-09T04:50:36;6.40;;;5.80;;
11245;SDS011;59870;50.106;8.580;2023-07-09T04:53:03;5.70;;;5.20;;
11245;SDS011;59870;50.106;8.580;2023-07-09T04:55:31;5.50;;;5.10;;
11245;SDS011;59870;50.106;8.580;2023-07-09T04:57:58;5.73;;;5.07;;
11245;SDS011;59870;50.106;8.580;2023-07-09T05:00:26;9.07;;;5.77;;
11245;SDS011;59870;50.106;8.580;2023-07-09T05:02:54;5.23;;;4.87;;
11245;SDS011;59870;50.106;8.580;2023-07-09T05:05:21;6.90;;;5.27;;
11245;SDS011;59870;50.106;8.580;2023-07-09T05:07:50;6.27;;;5.30;;
11245;SDS011;59870;50.106;8.580;2023-07-09T05:10:18;5.30;;;4.87;;
11245;SDS011;59870;50.106;8.580;2023-07-09T05:12:46;6.30;;;5.80;;
11245;SDS011;59870;50.106;8.580;2023-07-09T05:15:16;6.67;;;6.07;;
11245;SDS011;59870;50.106;8.580;2023-07-09T05:17:44;6.97;;;5.97;;
11245;SDS011;59870;50.106;8.580;2023-07-09T05:20:13;6.93;;;5.63;;
11245;SDS011;59870;50.106;8.580;2023-07-09T05:22:41;6.90;;;5.70;;
11245;SDS011;59870;50.106;8.580;2023-07-09T05:25:09;6.83;;;5.60;;
11245;SDS011;59870;50.106;8.580;2023-07-09T05:27:37;5.77;;;5.17;;
11245;SDS011;59870;50.106;8.580;2023-07-09T05:30:05;7.53;;;5.23;;
11245;SDS011;59870;50.106;8.580;2023-07-09T05:32:33;8.40;;;5.10;;
11245;SDS011;59870;50.106;8.580;2023-07-09T05:35:01;6.57;;;5.77;;
11245;SDS011;59870;50.106;8.580;2023-07-09T05:37:29;5.93;;;5.43;;
11245;SDS011;59870;50.106;8.580;2023-07-09T05:39:57;5.57;;;4.87;;
11245;SDS011;59870;50.106;8.580;2023-07-09T05:42:24;5.57;;;5.03;;
11245;SDS011;59870;50.106;8.580;2023-07-09T05:44:51;5.60;;;5.17;;
11245;SDS011;59870;50.106;8.580;2023-07-09T05:47:19;4.93;;;4.57;;
11245;SDS011;59870;50.106;8.580;2023-07-09T05:49:47;8.23;;;5.23;;
11245;SDS011;59870;50.106;8.580;2023-07-09T05:52:17;5.73;;;4.93;;
11245;SDS011;59870;50.106;8.580;2023-07-09T05:54:45;6.13;;;5.20;;
11245;SDS011;59870;50.106;8.580;2023-07-09T05:57:15;5.67;;;4.77;;
11245;SDS011;59870;50.106;8.580;2023-07-09T05:59:44;7.97;;;5.53;;
11245;SDS011;59870;50.106;8.580;2023-07-09T06:02:12;6.03;;;5.53;;
11245;SDS011;59870;50.106;8.580;2023-07-09T06:04:41;5.43;;;4.93;;
11245;SDS011;59870;50.106;8.580;2023-07-09T06:07:12;5.67;;;5.23;;
11245;SDS011;59870;50.106;8.580;2023-07-09T06:09:40;12.07;;;5.47;;
11245;SDS011;59870;50.106;8.580;2023-07-09T06:12:08;8.17;;;5.43;;
11245;SDS011;59870;50.106;8.580;2023-07-09T06:14:36;6.63;;;5.60;;
11245;SDS011;59870;50.106;8.580;2023-07-09T06:17:04;7.40;;;5.75;;
11245;SDS011;59870;50.106;8.580;2023-07-09T06:19:32;5.78;;;5.22;;
11245;SDS011;59870;50.106;8.580;2023-07-09T06:21:59;6.72;;;6.10;;
11245;SDS011;59870;50.106;8.580;2023-07-09T06:24:27;8.52;;;5.90;;
11245;SDS011;59870;50.106;8.580;2023-07-09T06:26:55;6.78;;;5.55;;
11245;SDS011;59870;50.106;8.580;2023-07-09T06:29:22;7.00;;;6.30;;
11245;SDS011;59870;50.106;8.580;2023-07-09T06:31:52;9.23;;;6.30;;
11245;SDS011;59870;50.106;8.580;2023-07-09T06:34:20;5.63;;;5.13;;
11245;SDS011;59870;50.106;8.580;2023-07-09T06:36:47;6.43;;;5.93;;
11245;SDS011;59870;50.106;8.580;2023-07-09T06:39:15;7.22;;;5.57;;
11245;SDS011;59870;50.106;8.580;2023-07-09T06:41:43;5.55;;;5.05;;
11245;SDS011;59870;50.106;8.580;2023-07-09T06:44:30;5.75;;;5.32;;
11245;SDS011;59870;50.106;8.580;2023-07-09T06:46:58;6.00;;;5.40;;
11245;SDS011;59870;50.106;8.580;2023-07-09T06:49:25;20.90;;;8.80;;
11245;SDS011;59870;50.106;8.580;2023-07-09T06:56:56;6.05;;;5.50;;
11245;SDS011;59870;50.106;8.580;2023-07-09T06:59:23;6.22;;;5.60;;
11245;SDS011;59870;50.106;8.580;2023-07-09T07:01:51;6.00;;;5.50;;
11245;SDS011;59870;50.106;8.580;2023-07-09T07:04:20;6.28;;;5.30;;
11245;SDS011;59870;50.106;8.580;2023-07-09T07:06:47;6.35;;;5.75;;
11245;SDS011;59870;50.106;8.580;2023-07-09T07:09:16;5.68;;;5.25;;
11245;SDS011;59870;50.106;8.580;2023-07-09T07:11:44;5.70;;;5.28;;
11245;SDS011;59870;50.106;8.580;2023-07-09T07:14:12;6.07;;;5.57;;
11245;SDS011;59870;50.106;8.580;2023-07-09T07:16:39;6.10;;;5.38;;
11245;SDS011;59870;50.106;8.580;2023-07-09T07:19:07;5.90;;;5.40;;
11245;SDS011;59870;50.106;8.580;2023-07-09T07:21:36;5.47;;;5.07;;
11245;SDS011;59870;50.106;8.580;2023-07-09T07:24:03;6.50;;;5.47;;
11245;SDS011;59870;50.106;8.580;2023-07-09T07:26:32;6.70;;;6.05;;
11245;SDS011;59870;50.106;8.580;2023-07-09T07:29:00;5.78;;;5.28;;
11245;SDS011;59870;50.106;8.580;2023-07-09T07:31:28;5.97;;;5.40;;
11245;SDS011;59870;50.106;8.580;2023-07-09T07:33:55;6.13;;;5.63;;
11245;SDS011;59870;50.106;8.580;2023-07-09T07:36:23;4.80;;;4.50;;
11245;SDS011;59870;50.106;8.580;2023-07-09T07:38:57;6.80;;;5.32;;
11245;SDS011;59870;50.106;8.580;2023-07-09T07:41:25;5.85;;;5.30;;
11245;SDS011;59870;50.106;8.580;2023-07-09T07:43:52;5.82;;;5.32;;
11245;SDS011;59870;50.106;8.580;2023-07-09T07:46:20;5.03;;;4.68;;
11245;SDS011;59870;50.106;8.580;2023-07-09T07:48:47;4.85;;;4.45;;
11245;SDS011;59870;50.106;8.580;2023-07-09T07:51:15;4.93;;;4.43;;
11245;SDS011;59870;50.106;8.580;2023-07-09T07:53:43;5.25;;;4.63;;
11245;SDS011;59870;50.106;8.580;2023-07-09T07:56:11;4.85;;;4.38;;
11245;SDS011;59870;50.106;8.580;2023-07-09T07:58:38;6.25;;;4.65;;
11245;SDS011;59870;50.106;8.580;2023-07-09T08:01:05;4.93;;;4.53;;
11245;SDS011;59870;50.106;8.580;2023-07-09T08:03:34;4.50;;;4.20;;
11245;SDS011;59870;50.106;8.580;2023-07-09T08:06:03;5.78;;;5.18;;
11245;SDS011;59870;50.106;8.580;2023-07-09T08:08:31;5.45;;;4.85;;
11245;SDS011;59870;50.106;8.580;2023-07-09T08:11:03;5.20;;;4.80;;
11245;SDS011;59870;50.106;8.580;2023-07-09T08:13:35;7.22;;;4.50;;
11245;SDS011;59870;50.106;8.580;2023-07-09T08:16:05;5.32;;;4.82;;
11245;SDS011;59870;50.106;8.580;2023-07-09T08:18:34;5.70;;;4.97;;
11245;SDS011;59870;50.106;8.580;2023-07-09T08:21:02;5.93;;;4.85;;
11245;SDS011;59870;50.106;8.580;2023-07-09T08:23:30;5.15;;;4.70;;
11245;SDS011;59870;50.106;8.580;2023-07-09T08:26:00;6.35;;;5.88;;
11245;SDS011;59870;50.106;8.580;2023-07-09T08:28:30;4.80;;;4.40;;
11245;SDS011;59870;50.106;8.580;2023-07-09T08:30:59;6.70;;;4.93;;
11245;SDS011;59870;50.106;8.580;2023-07-09T08:33:27;5.45;;;4.90;;
11245;SDS011;59870;50.106;8.580;2023-07-09T08:35:55;5.40;;;5.00;;
11245;SDS011;59870;50.106;8.580;2023-07-09T08:38:22;4.97;;;4.57;;
11245;SDS011;59870;50.106;8.580;2023-07-09T08:40:58;5.32;;;4.93;;
11245;SDS011;59870;50.106;8.580;2023-07-09T08:43:36;5.80;;;5.25;;
11245;SDS011;59870;50.106;8.580;2023-07-09T08:48:48;9.13;;;5.10;;
11245;SDS011;59870;50.106;8.580;2023-07-09T08:54:04;5.72;;;5.22;;
11245;SDS011;59870;50.106;8.580;2023-07-09T08:56:39;5.93;;;5.38;;
11245;SDS011;59870;50.106;8.580;2023-07-09T08:59:07;5.15;;;4.75;;
11245;SDS011;59870;50.106;8.580;2023-07-09T09:01:42;5.00;;;4.55;;
11245;SDS011;59870;50.106;8.580;2023-07-09T09:04:25;6.28;;;4.97;;
11245;SDS011;59870;50.106;8.580;2023-07-09T09:07:06;5.07;;;4.68;;
11245;SDS011;59870;50.106;8.580;2023-07-09T09:09:45;5.10;;;4.68;;
11245;SDS011;59870;50.106;8.580;2023-07-09T09:12:29;5.20;;;4.80;;
11245;SDS011;59870;50.106;8.580;2023-07-09T09:15:12;5.65;;;4.43;;
11245;SDS011;59870;50.106;8.580;2023-07-09T09:17:43;5.38;;;4.88;;
11245;SDS011;59870;50.106;8.580;2023-07-09T09:20:20;6.15;;;5.03;;
11245;SDS011;59870;50.106;8.580;2023-07-09T09:22:53;5.18;;;4.72;;
11245;SDS011;59870;50.106;8.580;2023-07-09T09:25:27;7.03;;;4.78;;
11245;SDS011;59870;50.106;8.580;2023-07-09T09:27:56;4.80;;;4.40;;
11245;SDS011;59870;50.106;8.580;2023-07-09T09:30:26;4.97;;;4.47;;
11245;SDS011;59870;50.106;8.580;2023-07-09T09:32:56;8.20;;;4.55;;
11245;SDS011;59870;50.106;8.580;2023-07-09T09:35:27;4.90;;;4.50;;
11245;SDS011;59870;50.106;8.580;2023-07-09T09:38:00;4.63;;;4.22;;
11245;SDS011;59870;50.106;8.580;2023-07-09T09:40:32;6.45;;;4.55;;
11245;SDS011;59870;50.106;8.580;2023-07-09T09:43:01;4.45;;;4.15;;
11245;SDS011;59870;50.106;8.580;2023-07-09T09:45:33;4.70;;;4.30;;
11245;SDS011;59870;50.106;8.580;2023-07-09T09:48:08;5.15;;;4.22;;
11245;SDS011;59870;50.106;8.580;2023-07-09T09:50:43;5.15;;;4.25;;
11245;SDS011;59870;50.106;8.580;2023-07-09T09:53:23;5.00;;;4.38;;
11245;SDS011;59870;50.106;8.580;2023-07-09T09:55:52;4.93;;;4.30;;
11245;SDS011;59870;50.106;8.580;2023-07-09T09:58:27;4.90;;;4.47;;
11245;SDS011;59870;50.106;8.580;2023-07-09T10:00:57;5.20;;;4.30;;
11245;SDS011;59870;50.106;8.580;2023-07-09T10:03:34;4.38;;;3.95;;
11245;SDS011;59870;50.106;8.580;2023-07-09T10:06:06;4.78;;;4.32;;
11245;SDS011;59870;50.106;8.580;2023-07-09T10:14:43;4.75;;;4.45;;
11245;SDS011;59870;50.106;8.580;2023-07-09T10:25:51;4.80;;;4.40;;
11245;SDS011;59870;50.106;8.580;2023-07-09T10:28:44;6.05;;;4.93;;
11245;SDS011;59870;50.106;8.580;2023-07-09T10:34:18;5.30;;;4.72;;
11245;SDS011;59870;50.106;8.580;2023-07-09T10:40:03;8.55;;;4.82;;
11245;SDS011;59870;50.106;8.580;2023-07-09T10:42:40;5.20;;;4.70;;
11245;SDS011;59870;50.106;8.580;2023-07-09T10:45:18;5.53;;;4.40;;
11245;SDS011;59870;50.106;8.580;2023-07-09T10:47:53;9.32;;;4.43;;
11245;SDS011;59870;50.106;8.580;2023-07-09T10:53:45;4.78;;;4.38;;
11245;SDS011;59870;50.106;8.580;2023-07-09T11:01:41;4.47;;;4.07;;
11245;SDS011;59870;50.106;8.580;2023-07-09T11:04:20;4.68;;;4.20;;
11245;SDS011;59870;50.106;8.580;2023-07-09T11:07:09;4.93;;;4.53;;
11245;SDS011;59870;50.106;8.580;2023-07-09T11:09:41;4.90;;;4.18;;
11245;SDS011;59870;50.106;8.580;2023-07-09T11:14:46;4.82;;;4.30;;
11245;SDS011;59870;50.106;8.580;2023-07-09T11:17:19;4.53;;;4.22;;
11245;SDS011;59870;50.106;8.580;2023-07-09T11:19:53;4.38;;;3.97;;
11245;SDS011;59870;50.106;8.580;2023-07-09T11:22:38;5.55;;;4.10;;
11245;SDS011;59870;50.106;8.580;2023-07-09T11:27:50;4.85;;;4.47;;
11245;SDS011;59870;50.106;8.580;2023-07-09T11:30:26;7.30;;;4.15;;
11245;SDS011;59870;50.106;8.580;2023-07-09T11:33:00;4.85;;;3.88;;
11245;SDS011;59870;50.106;8.580;2023-07-09T11:35:50;4.25;;;3.90;;
11245;SDS011;59870;50.106;8.580;2023-07-09T11:38:24;4.88;;;4.47;;
11245;SDS011;59870;50.106;8.580;2023-07-09T11:40:52;4.78;;;4.45;;
11245;SDS011;59870;50.106;8.580;2023-07-09T11:43:25;6.95;;;3.92;;
11245;SDS011;59870;50.106;8.580;2023-07-09T11:46:11;4.15;;;3.83;;
11245;SDS011;59870;50.106;8.580;2023-07-09T11:48:48;5.07;;;4.22;;
11245;SDS011;59870;50.106;8.580;2023-07-09T11:51:17;4.13;;;3.75;;
11245;SDS011;59870;50.106;8.580;2023-07-09T11:53:52;4.47;;;4.00;;
11245;SDS011;59870;50.106;8.580;2023-07-09T11:56:22;4.47;;;3.83;;
11245;SDS011;59870;50.106;8.580;2023-07-09T11:58:51;4.18;;;3.78;;
11245;SDS011;59870;50.106;8.580;2023-07-09T12:01:22;4.10;;;3.70;;
11245;SDS011;59870;50.106;8.580;2023-07-09T12:03:53;4.53;;;4.10;;
11245;SDS011;59870;50.106;8.580;2023-07-09T12:06:25;4.65;;;4.00;;
11245;SDS011;59870;50.106;8.580;2023-07-09T12:08:55;8.95;;;3.83;;
11245;SDS011;59870;50.106;8.580;2023-07-09T12:13:53;5.15;;;3.90;;
11245;SDS011;59870;50.106;8.580;2023-07-09T12:16:28;4.18;;;3.88;;
11245;SDS011;59870;50.106;8.580;2023-07-09T12:18:58;3.92;;;3.55;;
11245;SDS011;59870;50.106;8.580;2023-07-09T12:21:25;5.63;;;4.10;;
11245;SDS011;59870;50.106;8.580;2023-07-09T12:23:54;4.28;;;3.97;;
11245;SDS011;59870;50.106;8.580;2023-07-09T12:26:25;10.93;;;4.05;;
11245;SDS011;59870;50.106;8.580;2023-07-09T12:28:53;14.45;;;3.95;;
11245;SDS011;59870;50.106;8.580;2023-07-09T12:31:27;6.20;;;3.85;;
11245;SDS011;59870;50.106;8.580;2023-07-09T12:33:57;4.10;;;3.70;;
11245;SDS011;59870;50.106;8.580;2023-07-09T12:36:26;5.35;;;3.92;;
11245;SDS011;59870;50.106;8.580;2023-07-09T12:39:01;5.50;;;4.15;;
11245;SDS011;59870;50.106;8.580;2023-07-09T12:41:40;4.50;;;4.10;;
11245;SDS011;59870;50.106;8.580;2023-07-09T12:44:13;4.50;;;4.10;;
11245;SDS011;59870;50.106;8.580;2023-07-09T12:46:43;4.38;;;4.03;;
11245;SDS011;59870;50.106;8.580;2023-07-09T12:49:18;4.60;;;4.20;;
11245;SDS011;59870;50.106;8.580;2023-07-09T12:51:53;4.85;;;3.95;;
11245;SDS011;59870;50.106;8.580;2023-07-09T12:54:27;5.93;;;4.53;;
11245;SDS011;59870;50.106;8.580;2023-07-09T12:56:58;4.32;;;4.03;;
11245;SDS011;59870;50.106;8.580;2023-07-09T12:59:27;4.72;;;4.32;;
11245;SDS011;59870;50.106;8.580;2023-07-09T13:02:22;4.60;;;4.15;;
11245;SDS011;59870;50.106;8.580;2023-07-09T13:05:05;5.07;;;4.57;;
11245;SDS011;59870;50.106;8.580;2023-07-09T13:07:45;4.50;;;4.20;;
11245;SDS011;59870;50.106;8.580;2023-07-09T13:12:50;4.82;;;4.30;;
11245;SDS011;59870;50.106;8.580;2023-07-09T13:17:57;4.32;;;3.92;;
11245;SDS011;59870;50.106;8.580;2023-07-09T13:20:30;6.55;;;4.63;;
11245;SDS011;59870;50.106;8.580;2023-07-09T13:22:59;6.25;;;4.55;;
11245;SDS011;59870;50.106;8.580;2023-07-09T13:25:26;4.25;;;3.95;;
11245;SDS011;59870;50.106;8.580;2023-07-09T13:28:14;4.70;;;4.30;;
11245;SDS011;59870;50.106;8.580;2023-07-09T13:30:43;4.93;;;4.53;;
11245;SDS011;59870;50.106;8.580;2023-07-09T13:33:11;4.40;;;4.00;;
11245;SDS011;59870;50.106;8.580;2023-07-09T13:35:39;6.35;;;4.55;;
11245;SDS011;59870;50.106;8.580;2023-07-09T13:38:16;4.90;;;4.40;;
11245;SDS011;59870;50.106;8.580;2023-07-09T13:40:47;4.20;;;3.90;;
11245;SDS011;59870;50.106;8.580;2023-07-09T13:43:35;5.00;;;4.50;;
11245;SDS011;59870;50.106;8.580;2023-07-09T13:46:06;5.07;;;4.68;;
11245;SDS011;59870;50.106;8.580;2023-07-09T13:48:34;4.93;;;4.32;;
11245;SDS011;59870;50.106;8.580;2023-07-09T13:51:37;4.70;;;4.30;;
11245;SDS011;59870;50.106;8.580;2023-07-09T13:53:57;5.13;;;4.63;;
11245;SDS011;59870;50.106;8.580;2023-07-09T13:56:26;4.90;;;4.47;;
11245;SDS011;59870;50.106;8.580;2023-07-09T13:58:53;5.78;;;4.18;;
11245;SDS011;59870;50.106;8.580;2023-07-09T14:01:21;5.25;;;4.72;;
11245;SDS011;59870;50.106;8.580;2023-07-09T14:03:50;4.30;;;4.00;;
11245;SDS011;59870;50.106;8.580;2023-07-09T14:06:21;4.20;;;3.90;;
11245;SDS011;59870;50.106;8.580;2023-07-09T14:08:48;7.72;;;4.40;;
11245;SDS011;59870;50.106;8.580;2023-07-09T14:11:16;4.40;;;4.05;;
11245;SDS011;59870;50.106;8.580;2023-07-09T14:13:45;4.03;;;3.72;;
11245;SDS011;59870;50.106;8.580;2023-07-09T14:16:13;4.65;;;4.30;;
11245;SDS011;59870;50.106;8.580;2023-07-09T14:18:42;5.18;;;4.63;;
11245;SDS011;59870;50.106;8.580;2023-07-09T14:21:18;3.97;;;3.55;;
11245;SDS011;59870;50.106;8.580;2023-07-09T14:23:50;4.15;;;3.65;;
11245;SDS011;59870;50.106;8.580;2023-07-09T14:26:18;3.90;;;3.60;;
11245;SDS011;59870;50.106;8.580;2023-07-09T14:28:46;4.47;;;4.07;;
11245;SDS011;59870;50.106;8.580;2023-07-09T14:31:18;4.40;;;4.10;;
11245;SDS011;59870;50.106;8.580;2023-07-09T14:33:49;5.43;;;4.35;;
11245;SDS011;59870;50.106;8.580;2023-07-09T14:36:16;5.90;;;4.45;;
11245;SDS011;59870;50.106;8.580;2023-07-09T14:38:45;4.35;;;3.90;;
11245;SDS011;59870;50.106;8.580;2023-07-09T14:41:18;4.72;;;4.15;;
11245;SDS011;59870;50.106;8.580;2023-07-09T14:43:48;5.85;;;4.63;;
11245;SDS011;59870;50.106;8.580;2023-07-09T14:46:16;4.47;;;4.07;;
11245;SDS011;59870;50.106;8.580;2023-07-09T14:48:43;5.07;;;4.57;;
11245;SDS011;59870;50.106;8.580;2023-07-09T14:51:12;4.57;;;4.18;;
11245;SDS011;59870;50.106;8.580;2023-07-09T14:53:43;4.80;;;4.10;;
11245;SDS011;59870;50.106;8.580;2023-07-09T14:56:12;6.10;;;4.28;;
11245;SDS011;59870;50.106;8.580;2023-07-09T14:58:41;8.23;;;4.25;;
11245;SDS011;59870;50.106;8.580;2023-07-09T15:01:10;7.15;;;4.80;;
11245;SDS011;59870;50.106;8.580;2023-07-09T15:03:44;4.95;;;4.47;;
11245;SDS011;59870;50.106;8.580;2023-07-09T15:06:12;4.97;;;4.57;;
11245;SDS011;59870;50.106;8.580;2023-07-09T15:08:42;4.88;;;4.47;;
11245;SDS011;59870;50.106;8.580;2023-07-09T15:11:10;5.15;;;4.55;;
11245;SDS011;59870;50.106;8.580;2023-07-09T15:13:37;4.65;;;4.28;;
11245;SDS011;59870;50.106;8.580;2023-07-09T15:16:05;6.10;;;4.90;;
11245;SDS011;59870;50.106;8.580;2023-07-09T15:18:33;4.35;;;4.05;;
11245;SDS011;59870;50.106;8.580;2023-07-09T15:21:03;5.53;;;3.95;;
11245;SDS011;59870;50.106;8.580;2023-07-09T15:23:36;6.68;;;4.82;;
11245;SDS011;59870;50.106;8.580;2023-07-09T15:26:11;6.22;;;4.68;;
11245;SDS011;59870;50.106;8.580;2023-07-09T15:28:43;4.93;;;4.53;;
11245;SDS011;59870;50.106;8.580;2023-07-09T15:31:16;5.65;;;5.10;;
11245;SDS011;59870;50.106;8.580;2023-07-09T15:33:44;4.82;;;4.43;;
11245;SDS011;59870;50.106;8.580;2023-07-09T15:36:12;5.57;;;3.88;;
11245;SDS011;59870;50.106;8.580;2023-07-09T15:38:40;4.60;;;4.20;;
11245;SDS011;59870;50.106;8.580;2023-07-09T15:41:12;6.60;;;4.30;;
11245;SDS011;59870;50.106;8.580;2023-07-09T15:43:41;4.47;;;4.07;;
11245;SDS011;59870;50.106;8.580;2023-07-09T15:46:15;5.13;;;4.53;;
11245;SDS011;59870;50.106;8.580;2023-07-09T15:48:45;4.97;;;4.57;;
11245;SDS011;59870;50.106;8.580;2023-07-09T15:51:13;9.23;;;4.15;;
11245;SDS011;59870;50.106;8.580;2023-07-09T15:53:41;5.03;;;4.00;;
11245;SDS011;59870;50.106;8.580;2023-07-09T15:56:24;4.57;;;4.18;;
11245;SDS011;59870;50.106;8.580;2023-07-09T15:58:54;7.68;;;4.68;;
11245;SDS011;59870;50.106;8.580;2023-07-09T16:01:21;4.90;;;4.50;;
11245;SDS011;59870;50.106;8.580;2023-07-09T16:03:57;5.25;;;4.25;;
11245;SDS011;59870;50.106;8.580;2023-07-09T16:06:27;4.38;;;3.95;;